createdAt,value
2019-04-03T08:22:04.799Z,354.38
2019-04-03T08:23:05.955Z,371.25
2019-04-03T08:24:05.996Z,388.13
2019-04-03T08:25:04.689Z,393.75
2019-04-03T08:26:04.905Z,410.63
2019-04-03T08:27:07.763Z,421.88
2019-04-03T08:28:04.637Z,433.13
2019-04-03T08:29:04.593Z,444.38
2019-04-03T08:30:07.469Z,444.38
2019-04-03T08:31:04.602Z,438.75
2019-04-03T08:32:04.851Z,416.25
2019-04-03T08:33:15.150Z,393.75
2019-04-03T08:34:14.608Z,376.88
2019-04-03T08:35:04.627Z,360.00
2019-04-03T08:36:06.628Z,343.13
2019-04-03T08:37:04.421Z,326.25
2019-04-03T08:38:04.400Z,326.25
2019-04-03T08:39:04.464Z,326.25
2019-04-03T08:40:04.369Z,315.00
2019-04-03T08:41:04.455Z,303.75
2019-04-03T09:03:08.313Z,360.00
2019-04-03T09:04:08.091Z,371.25
2019-04-03T09:05:08.051Z,382.50
2019-04-03T09:06:08.029Z,388.13
2019-04-03T09:07:08.011Z,388.13
2019-04-03T09:08:07.982Z,382.50
2019-04-03T09:09:08.271Z,382.50
2019-04-03T09:10:07.973Z,388.13
2019-04-03T09:11:08.202Z,399.38
2019-04-03T09:12:08.054Z,416.25
2019-04-03T09:13:16.983Z,427.50
2019-04-03T09:14:07.955Z,438.75
2019-04-03T09:15:07.838Z,450.00
2019-04-03T09:16:10.153Z,461.25
2019-04-03T09:17:07.794Z,466.88
2019-04-03T09:25:08.761Z,450.00
2019-04-03T09:26:08.724Z,466.88
2019-04-03T09:27:09.856Z,466.88
2019-04-03T09:28:08.967Z,466.88
2019-04-03T09:29:08.673Z,472.50
2019-04-03T09:30:08.637Z,478.13
2019-04-03T09:31:08.864Z,495.00
2019-04-03T09:32:08.597Z,517.50
2019-04-03T09:33:08.579Z,540.00
2019-04-03T09:34:08.786Z,562.50
2019-04-03T09:35:08.538Z,585.00
2019-04-03T09:36:08.515Z,607.50
2019-04-03T09:37:08.810Z,635.63
2019-04-03T09:38:09.821Z,646.88
2019-04-03T09:39:08.476Z,658.13
2019-04-03T09:40:08.440Z,658.13
2019-04-03T09:41:08.418Z,658.13
2019-04-03T09:42:08.403Z,652.50
2019-04-03T09:43:08.380Z,646.88
2019-04-03T09:44:08.373Z,635.63
2019-04-03T09:45:08.377Z,618.75
2019-04-03T09:46:08.326Z,607.50
2019-04-03T09:47:08.381Z,613.13
2019-04-03T09:48:11.215Z,624.38
2019-04-03T09:49:08.423Z,624.38
2019-04-03T09:53:30.501Z,635.63
2019-04-03T09:54:30.424Z,641.25
2019-04-03T09:55:35.420Z,641.25
2019-04-03T09:56:30.354Z,641.25
2019-04-03T09:57:31.321Z,641.25
2019-04-03T09:58:30.315Z,618.75
2019-04-03T09:59:30.507Z,601.88
2019-04-03T10:00:30.274Z,590.63
2019-04-03T10:01:30.257Z,573.75
2019-04-03T10:02:30.237Z,540.00
2019-04-03T10:07:15.932Z,506.25
2019-04-03T10:08:15.893Z,500.63
2019-04-03T10:09:15.875Z,489.38
2019-04-03T10:10:16.907Z,478.13
2019-04-03T10:11:17.710Z,461.25
2019-04-03T10:17:03.872Z,500.63
2019-04-03T10:18:02.222Z,540.00
2019-04-03T10:19:02.197Z,596.25
2019-04-03T10:20:02.178Z,641.25
2019-04-03T10:21:02.210Z,663.75
2019-04-03T10:22:02.135Z,658.13
2019-04-03T10:23:02.119Z,658.13
2019-04-03T10:24:02.157Z,652.50
2019-04-03T10:25:11.477Z,646.88
2019-04-03T10:26:02.288Z,641.25
2019-04-03T10:27:02.056Z,624.38
2019-04-03T10:28:02.249Z,607.50
2019-04-03T10:29:02.010Z,596.25
2019-04-03T10:30:01.983Z,590.63
2019-04-03T10:31:01.964Z,601.88
2019-04-03T10:32:01.965Z,613.13
2019-04-03T10:33:02.016Z,613.13
2019-04-03T10:34:03.144Z,601.88
2019-04-03T10:35:02.329Z,601.88
2019-04-03T10:36:02.216Z,618.75
2019-04-03T10:37:01.867Z,630.00
2019-04-03T10:38:01.992Z,613.13
2019-04-03T10:39:01.818Z,613.13
2019-04-03T10:40:01.796Z,618.75
2019-04-03T10:41:01.868Z,630.00
2019-04-03T10:42:01.778Z,635.63
2019-04-03T10:43:04.705Z,641.25
2019-04-03T10:46:08.028Z,652.50
2019-04-03T10:47:08.024Z,652.50
2019-04-03T10:48:07.983Z,646.88
2019-04-03T10:49:07.966Z,646.88
2019-04-03T10:50:08.215Z,646.88
2019-04-03T10:51:09.259Z,658.13
2019-04-03T10:52:07.906Z,669.38
2019-04-03T10:53:07.906Z,703.13
2019-04-03T10:54:07.883Z,725.63
2019-04-03T10:55:08.033Z,742.50
2019-04-03T10:56:15.705Z,781.88
2019-04-03T10:57:07.814Z,849.38
2019-04-03T10:58:08.535Z,928.13
2019-04-03T10:59:11.561Z,984.38
2019-04-03T11:00:07.758Z,1018.13
2019-04-03T11:01:07.741Z,984.38
2019-04-03T11:02:07.722Z,950.63
2019-04-03T11:03:07.723Z,967.50
2019-04-03T11:04:07.715Z,1023.75
2019-04-03T11:05:07.672Z,1051.88
2019-04-03T11:06:07.653Z,1023.75
2019-04-03T11:07:07.902Z,973.13
2019-04-03T11:08:07.626Z,978.75
2019-04-03T11:09:07.674Z,978.75
2019-04-03T11:10:07.596Z,973.13
2019-04-03T11:11:07.558Z,945.00
2019-04-03T11:12:09.714Z,900.00
2019-04-03T11:13:07.546Z,860.63
2019-04-03T11:14:08.103Z,838.13
2019-04-03T11:15:10.463Z,826.88
2019-04-03T11:16:07.481Z,759.38
2019-04-03T11:17:07.455Z,658.13
2019-04-03T11:18:07.440Z,562.50
2019-04-03T11:19:07.519Z,534.38
2019-04-03T11:20:09.801Z,540.00
2019-04-03T11:21:07.387Z,573.75
2019-04-03T11:22:07.375Z,618.75
2019-04-03T11:23:08.386Z,630.00
2019-04-03T11:24:07.458Z,624.38
2019-04-03T11:25:07.469Z,607.50
2019-04-03T11:26:07.307Z,601.88
2019-04-03T11:27:07.284Z,568.13
2019-04-03T11:33:12.862Z,562.50
2019-04-03T11:34:10.559Z,540.00
2019-04-03T11:35:10.520Z,528.75
2019-04-03T11:36:10.210Z,517.50
2019-04-03T11:37:10.582Z,506.25
2019-04-03T11:38:14.208Z,511.88
2019-04-03T11:39:14.860Z,573.75
2019-04-03T11:40:10.478Z,652.50
2019-04-03T11:41:14.438Z,686.25
2019-04-03T11:42:13.815Z,658.13
2019-04-03T11:50:01.846Z,450.00
2019-04-03T11:51:02.126Z,455.63
2019-04-03T11:52:02.006Z,472.50
2019-04-03T11:53:04.848Z,506.25
2019-04-03T11:54:01.672Z,545.63
2019-04-03T11:55:01.668Z,590.63
2019-04-03T11:56:01.631Z,624.38
2019-04-03T11:57:01.617Z,658.13
2019-04-03T11:58:01.596Z,652.50
2019-04-03T12:04:06.553Z,433.13
2019-04-03T12:05:06.664Z,410.63
2019-04-03T12:06:06.764Z,399.38
2019-04-03T12:07:06.531Z,410.63
2019-04-03T12:12:38.467Z,540.00
2019-04-03T12:13:38.536Z,528.75
2019-04-03T12:14:38.229Z,523.13
2019-04-03T12:15:38.225Z,523.13
2019-04-03T12:16:38.188Z,523.13
2019-04-03T12:17:38.855Z,523.13
2019-04-03T12:23:06.105Z,472.50
2019-04-03T12:24:06.015Z,478.13
2019-04-03T12:25:06.055Z,511.88
2019-04-03T12:26:05.970Z,523.13
2019-04-03T12:27:05.899Z,489.38
2019-04-03T12:39:08.103Z,410.63
2019-04-03T12:40:08.376Z,450.00
2019-04-03T12:41:08.068Z,495.00
2019-04-03T12:42:08.732Z,540.00
2019-04-03T12:43:08.004Z,573.75
2019-04-03T12:44:07.991Z,585.00
2019-04-03T12:45:07.964Z,613.13
2019-04-03T12:46:08.360Z,641.25
2019-04-03T12:47:12.813Z,686.25
2019-04-03T12:48:07.909Z,725.63
2019-04-03T12:49:08.063Z,765.00
2019-04-03T12:50:07.883Z,793.13
2019-04-03T12:51:07.870Z,810.00
2019-04-03T12:52:07.830Z,815.63
2019-04-03T12:53:08.180Z,804.38
2019-04-03T12:54:07.797Z,798.75
2019-04-03T12:55:07.781Z,804.38
2019-04-03T12:56:07.768Z,815.63
2019-04-03T12:57:07.791Z,815.63
2019-04-03T12:58:07.753Z,804.38
2019-04-03T12:59:09.386Z,776.25
2019-04-03T13:00:10.762Z,765.00
2019-04-03T13:01:07.668Z,793.13
2019-04-03T13:02:07.663Z,866.25
2019-04-03T13:03:08.014Z,883.13
2019-04-03T13:04:07.614Z,838.13
2019-04-03T13:05:07.889Z,770.63
2019-04-03T13:06:09.739Z,725.63
2019-04-03T13:07:07.557Z,736.88
2019-04-03T13:08:07.751Z,793.13
2019-04-03T13:09:07.522Z,798.75
2019-04-03T13:10:08.020Z,781.88
2019-04-03T13:11:07.498Z,770.63
2019-04-03T13:12:07.528Z,781.88
2019-04-03T13:13:07.992Z,804.38
2019-04-03T13:14:07.433Z,832.50
2019-04-03T13:15:07.418Z,855.00
2019-04-03T13:16:09.200Z,826.88
2019-04-03T13:17:07.421Z,810.00
2019-04-03T13:18:07.750Z,793.13
2019-04-03T13:19:07.345Z,793.13
2019-04-03T13:20:07.330Z,787.50
2019-04-03T13:21:09.017Z,787.50
2019-04-03T13:22:07.292Z,798.75
2019-04-03T13:23:07.309Z,804.38
2019-04-03T13:24:07.261Z,798.75
2019-04-03T13:25:07.537Z,781.88
2019-04-03T13:26:07.413Z,770.63
2019-04-03T13:27:07.205Z,759.38
2019-04-03T13:28:07.230Z,742.50
2019-04-03T13:29:08.929Z,720.00
2019-04-03T13:33:31.859Z,579.38
2019-04-03T13:34:32.616Z,556.88
2019-04-03T13:35:31.950Z,551.25
2019-04-03T13:36:32.479Z,551.25
2019-04-03T13:43:39.797Z,450.00
2019-04-03T13:44:39.762Z,455.63
2019-04-03T13:45:40.030Z,438.75
2019-04-03T13:46:39.861Z,416.25
2019-04-03T14:21:16.188Z,371.25
2019-04-03T14:22:15.826Z,421.88
2019-04-03T14:23:15.799Z,466.88
2019-04-03T14:24:15.789Z,506.25
2019-04-03T14:25:21.335Z,523.13
2019-04-03T14:26:15.974Z,511.88
2019-04-03T14:27:21.982Z,495.00
2019-04-03T14:28:15.700Z,483.75
2019-04-03T14:29:15.828Z,466.88
2019-04-03T14:30:15.676Z,455.63
2019-04-03T14:31:17.837Z,433.13
2019-04-03T14:32:15.618Z,416.25
